Time;durP1;ratioP1;P1;durP2;ratioP2;P2;SDS_P1;SDS_P2;PMS_P1;PMS_P2;Temp;Humidity;BMP_temperature;BMP_pressure;BME280_temperature;BME280_humidity;BME280_pressure;Samples;Min_cycle;Max_cycle;Signal;HPM_P1;HPM_P2
2024/03/17 00:01:35;;;;;;;12.50;3.07;;;;;;;3.06;100.00;102691.59;4944595;28;20501;-74
2024/03/17 00:04:01;;;;;;;13.93;3.30;;;;;;;1.75;100.00;102479.66;4929165;28;20549;-74
2024/03/17 00:06:26;;;;;;;11.57;2.53;;;;;;;1.73;100.00;102481.53;4943828;28;20201;-74
2024/03/17 00:08:52;;;;;;;9.87;2.50;;;;;;;3.75;100.00;102881.41;4925930;28;20675;-74
2024/03/17 00:11:17;;;;;;;16.37;3.70;;;;;;;3.96;100.00;102894.19;4944301;28;20206;-74
2024/03/17 00:13:45;;;;;;;18.53;2.57;;;;;;;2.86;100.00;102733.53;4943305;28;20313;-74
2024/03/17 00:16:12;;;;;;;9.73;2.83;;;;;;;2.53;100.00;102718.06;4926476;28;20674;-74
2024/03/17 00:18:40;;;;;;;15.70;3.23;;;;;;;3.18;100.00;102796.81;4945076;28;20435;-74
2024/03/17 00:21:06;;;;;;;14.87;2.60;;;;;;;2.22;100.00;102637.13;4927244;29;20459;-74
2024/03/17 00:23:32;;;;;;;11.77;2.50;;;;;;;1.25;100.00;102558.66;4944983;28;20439;-74
2024/03/17 00:25:57;;;;;;;14.40;3.00;;;;;;;1.89;100.00;102585.44;4947511;28;20265;-74
2024/03/17 00:28:23;;;;;;;10.03;2.40;;;;;;;1.19;100.00;102519.38;4943054;28;21002;-74
2024/03/17 00:30:48;;;;;;;11.50;2.50;;;;;;;3.57;100.00;102851.66;4942555;28;20184;-74
2024/03/17 00:33:14;;;;;;;11.90;3.20;;;;;;;2.39;100.00;102712.81;4945823;28;20191;-74
2024/03/17 00:35:39;;;;;;;9.37;2.57;;;;;;;4.63;100.00;103048.97;4945294;28;20931;-74
2024/03/17 00:38:10;;;;;;;9.73;2.60;;;;;;;0.71;100.00;102488.94;4946119;28;20179;-74
2024/03/17 00:40:36;;;;;;;12.50;2.77;;;;;;;2.02;100.00;102684.25;4929736;28;20222;-74
2024/03/17 00:43:02;;;;;;;10.67;3.23;;;;;;;2.59;100.00;102772.47;4943902;28;20473;-74
2024/03/17 00:45:27;;;;;;;11.20;3.03;;;;;;;2.02;100.00;102689.56;4944834;28;20442;-74
2024/03/17 00:47:53;;;;;;;13.03;3.00;;;;;;;2.17;100.00;102655.09;4947237;28;20657;-74
2024/03/17 00:50:18;;;;;;;10.57;3.47;;;;;;;2.44;100.00;102663.91;4945820;28;20233;-74
2024/03/17 00:52:44;;;;;;;14.63;3.10;;;;;;;1.92;100.00;102593.19;4946951;28;20234;-74
2024/03/17 00:55:10;;;;;;;14.40;3.50;;;;;;;2.55;100.00;102723.28;4926059;28;20664;-74
2024/03/17 00:57:36;;;;;;;10.97;3.23;;;;;;;2.65;100.00;102750.88;4944255;28;20203;-74
2024/03/17 01:00:03;;;;;;;13.50;3.53;;;;;;;1.52;100.00;102547.28;4929477;28;20452;-74
2024/03/17 01:02:28;;;;;;;12.20;2.93;;;;;;;3.33;100.00;102869.25;4940636;28;21465;-74
2024/03/17 01:04:53;;;;;;;11.40;2.80;;;;;;;1.22;100.00;102492.75;4946973;28;20553;-74
2024/03/17 01:07:21;;;;;;;9.57;2.57;;;;;;;2.02;100.00;102663.09;4927816;28;20182;-74
2024/03/17 01:09:48;;;;;;;13.70;3.73;;;;;;;3.13;100.00;102805.09;4945863;28;20262;-74
2024/03/17 01:12:13;;;;;;;9.40;3.63;;;;;;;4.82;100.00;103067.13;4924303;28;20466;-74
2024/03/17 01:14:39;;;;;;;10.50;2.60;;;;;;;3.94;100.00;102898.75;4945100;28;20801;-74
2024/03/17 01:17:04;;;;;;;12.00;3.10;;;;;;;3.03;100.00;102716.50;4945624;28;20250;-74
2024/03/17 01:19:31;;;;;;;15.93;3.13;;;;;;;2.25;100.00;102606.00;4928380;28;20222;-74
2024/03/17 01:21:56;;;;;;;10.40;3.27;;;;;;;3.43;100.00;102797.84;4944341;28;20234;-74
2024/03/17 01:24:22;;;;;;;13.40;3.20;;;;;;;1.97;100.00;102559.34;4942938;28;20462;-74
2024/03/17 01:26:48;;;;;;;11.50;3.20;;;;;;;1.89;100.00;102498.13;4943806;28;20214;-74
2024/03/17 01:29:13;;;;;;;10.40;3.43;;;;;;;2.39;100.00;102606.88;4943560;28;20193;-74
2024/03/17 01:31:39;;;;;;;12.53;3.00;;;;;;;3.53;100.00;102764.41;4943507;28;20213;-74
2024/03/17 01:34:04;;;;;;;13.17;3.80;;;;;;;2.43;100.00;102641.03;4942792;28;20186;-74
2024/03/17 01:36:32;;;;;;;13.90;3.20;;;;;;;2.89;100.00;102682.13;4965061;23;20221;-76
2024/03/17 01:39:02;;;;;;;13.17;3.70;;;;;;;3.31;100.00;102755.28;4969466;28;20210;-77
2024/03/17 01:41:32;;;;;;;10.30;3.13;;;;;;;2.99;100.00;102740.69;4959693;28;20463;-76
2024/03/17 01:43:58;;;;;;;11.70;3.27;;;;;;;3.08;100.00;102687.88;4968246;28;20445;-77
2024/03/17 01:46:29;;;;;;;9.30;3.23;;;;;;;2.68;100.00;102610.22;4952210;28;20447;-77
2024/03/17 01:48:54;;;;;;;20.20;3.90;;;;;;;2.66;100.00;102622.72;4951273;28;20460;-77
2024/03/17 01:51:23;;;;;;;14.70;2.87;;;;;;;2.17;100.00;102588.91;4963188;28;20458;-77
2024/03/17 01:53:51;;;;;;;14.23;3.57;;;;;;;4.68;100.00;102980.34;4965214;28;20221;-77
2024/03/17 01:56:25;;;;;;;12.23;3.70;;;;;;;2.76;100.00;102594.66;4967788;28;20470;-76
2024/03/17 01:58:55;;;;;;;9.07;3.00;;;;;;;1.87;100.00;102492.06;4967140;28;20548;-77
2024/03/17 02:01:20;;;;;;;10.27;3.43;;;;;;;2.65;100.00;102576.84;4967322;28;20556;-79
2024/03/17 02:03:48;;;;;;;9.37;3.23;;;;;;;3.24;100.00;102716.88;4947245;28;20533;-79
2024/03/17 02:06:14;;;;;;;7.73;3.03;;;;;;;4.00;100.00;102821.34;4963857;28;20196;-79
2024/03/17 02:08:56;;;;;;;12.03;3.90;;;;;;;3.95;100.00;102757.06;4943300;28;20442;-79
2024/03/17 02:11:31;;;;;;;13.37;3.57;;;;;;;3.76;100.00;102736.28;4965384;28;20222;-79
2024/03/17 02:14:00;;;;;;;9.63;3.00;;;;;;;2.08;100.00;102467.75;4964695;28;20441;-79
2024/03/17 02:16:26;;;;;;;8.57;3.13;;;;;;;3.90;100.00;102748.56;4964502;28;20514;-79
2024/03/17 02:18:57;;;;;;;13.00;3.40;;;;;;;1.73;100.00;102413.59;4948489;28;20474;-79
2024/03/17 02:21:31;;;;;;;12.67;3.33;;;;;;;4.75;100.00;102909.84;4963531;28;20210;-79
2024/03/17 02:23:59;;;;;;;10.03;2.93;;;;;;;2.93;100.00;102673.88;4946531;28;20448;-79
2024/03/17 02:26:27;;;;;;;12.23;3.30;;;;;;;2.21;100.00;102556.84;4947243;28;20804;-79
2024/03/17 02:28:55;;;;;;;12.67;3.10;;;;;;;3.88;100.00;102820.38;4946182;28;20448;-79
2024/03/17 02:31:22;;;;;;;11.10;3.00;;;;;;;1.69;100.00;102437.75;4962485;28;20471;-79
2024/03/17 02:33:52;;;;;;;7.63;3.23;;;;;;;1.85;100.00;102448.97;4949575;28;20544;-79
2024/03/17 02:36:17;;;;;;;11.87;3.23;;;;;;;2.75;100.00;102581.50;4967105;28;20548;-79
2024/03/17 02:41:32;;;;;;;9.67;3.37;;;;;;;2.79;100.00;102647.47;4965878;28;20892;-79
2024/03/17 02:44:05;;;;;;;8.77;3.10;;;;;;;3.84;100.00;102832.16;4962919;28;20504;-79
2024/03/17 02:46:31;;;;;;;8.67;3.27;;;;;;;3.63;100.00;102734.47;4950654;28;20526;-79
2024/03/17 02:48:59;;;;;;;11.77;3.40;;;;;;;3.45;100.00;102742.88;4966599;28;20560;-79
2024/03/17 02:51:24;;;;;;;11.70;3.30;;;;;;;3.09;100.00;102689.56;4963920;28;20239;-79
2024/03/17 02:53:53;;;;;;;12.90;3.50;;;;;;;2.26;100.00;102551.25;4951003;28;20962;-79
2024/03/17 02:56:21;;;;;;;11.37;3.17;;;;;;;2.98;100.00;102664.75;4969362;28;20230;-79
2024/03/17 02:58:51;;;;;;;7.90;2.97;;;;;;;3.12;100.00;102720.34;4966331;28;20445;-79
2024/03/17 03:01:21;;;;;;;13.50;3.00;;;;;;;2.91;100.00;102651.91;4962117;28;20461;-79
2024/03/17 03:03:51;;;;;;;10.50;3.87;;;;;;;3.07;100.00;102651.72;4944731;28;20579;-79
2024/03/17 03:06:19;;;;;;;9.13;3.07;;;;;;;2.28;100.00;102552.00;4969268;28;20425;-79
2024/03/17 03:11:24;;;;;;;9.33;3.17;;;;;;;4.40;100.00;102911.50;5085745;27;21189;-71
2024/03/17 03:13:49;;;;;;;12.73;3.43;;;;;;;4.40;100.00;102888.44;5051444;28;20453;-71
2024/03/17 03:16:15;;;;;;;10.70;3.67;;;;;;;4.32;100.00;102896.09;5043683;28;20198;-71
2024/03/17 03:18:42;;;;;;;7.87;3.30;;;;;;;3.51;100.00;102790.22;5036895;28;20191;-71
2024/03/17 03:21:08;;;;;;;10.83;3.53;;;;;;;4.28;100.00;102914.06;5064337;28;20215;-69
2024/03/17 03:23:34;;;;;;;11.80;3.20;;;;;;;4.39;100.00;102937.22;5044122;28;20445;-68
2024/03/17 03:26:04;;;;;;;15.70;3.33;;;;;;;4.38;100.00;102932.88;5044166;28;20464;-68
2024/03/17 03:28:32;;;;;;;9.40;3.20;;;;;;;4.02;100.00;102904.38;5044987;28;20924;-68
2024/03/17 03:30:58;;;;;;;10.23;3.20;;;;;;;4.32;100.00;102930.63;5054540;28;20476;-69
2024/03/17 03:33:24;;;;;;;9.73;3.27;;;;;;;3.97;100.00;102901.19;5043345;28;20442;-68
2024/03/17 03:35:50;;;;;;;9.40;3.20;;;;;;;3.60;100.00;102853.25;5041160;28;20179;-69
2024/03/17 03:38:17;;;;;;;9.97;3.20;;;;;;;3.61;100.00;102860.25;5049254;28;20536;-69
2024/03/17 03:40:43;;;;;;;11.50;3.87;;;;;;;3.65;100.00;102898.94;5048592;28;20476;-68
2024/03/17 03:43:10;;;;;;;14.73;3.13;;;;;;;3.81;100.00;102928.78;5038888;28;20453;-69
2024/03/17 03:45:36;;;;;;;15.40;3.30;;;;;;;3.99;100.00;102942.63;5047021;28;21000;-69
2024/03/17 03:48:04;;;;;;;9.30;3.47;;;;;;;4.12;100.00;102955.06;5039313;28;20874;-69
2024/03/17 03:50:30;;;;;;;10.90;3.23;;;;;;;4.10;100.00;102949.84;5041012;28;20855;-69
2024/03/17 03:52:56;;;;;;;12.73;2.77;;;;;;;3.69;100.00;102915.50;5040974;28;20469;-69
2024/03/17 03:55:21;;;;;;;8.83;3.50;;;;;;;3.50;100.00;102908.78;5040524;28;20537;-69
2024/03/17 03:57:48;;;;;;;12.23;2.80;;;;;;;3.18;100.00;102849.84;5046039;28;20665;-69
2024/03/17 04:00:21;;;;;;;13.97;3.33;;;;;;;3.91;100.00;102960.03;5043760;28;20402;-69
2024/03/17 04:02:50;;;;;;;9.67;3.20;;;;;;;3.85;100.00;102922.31;5040407;28;20440;-68
2024/03/17 04:05:16;;;;;;;9.00;2.70;;;;;;;3.73;100.00;102893.09;5041311;28;20437;-69
2024/03/17 04:07:42;;;;;;;9.53;3.23;;;;;;;3.26;100.00;102831.66;5040106;28;21517;-68
2024/03/17 04:10:09;;;;;;;11.90;3.70;;;;;;;3.88;100.00;102944.28;5054699;28;20901;-68
2024/03/17 04:12:35;;;;;;;10.70;3.67;;;;;;;3.71;100.00;102925.06;5046132;28;20475;-69
2024/03/17 04:15:01;;;;;;;7.97;2.60;;;;;;;3.21;100.00;102832.91;5043618;28;20564;-68
2024/03/17 04:17:29;;;;;;;13.50;3.93;;;;;;;3.63;100.00;102869.81;5060989;28;20469;-69
2024/03/17 04:19:55;;;;;;;9.40;3.37;;;;;;;3.97;100.00;102943.69;5041323;28;20841;-69
2024/03/17 04:22:21;;;;;;;11.60;3.10;;;;;;;3.39;100.00;102860.88;5037974;28;20498;-69
2024/03/17 04:24:52;;;;;;;10.13;2.90;;;;;;;3.93;100.00;102944.84;5037289;28;20803;-69
2024/03/17 04:27:18;;;;;;;6.60;2.47;;;;;;;3.73;100.00;102935.56;5038178;28;20434;-69
2024/03/17 04:29:47;;;;;;;16.53;3.60;;;;;;;3.83;100.00;102932.19;5041379;28;20452;-69
2024/03/17 04:32:14;;;;;;;9.37;3.40;;;;;;;3.88;100.00;102931.00;5031473;28;20466;-69
2024/03/17 04:34:39;;;;;;;16.90;3.77;;;;;;;3.83;100.00;102947.28;5033463;28;20445;-69
2024/03/17 04:37:05;;;;;;;11.43;3.07;;;;;;;3.42;100.00;102878.41;5052462;28;20980;-70
2024/03/17 04:39:31;;;;;;;12.43;3.03;;;;;;;3.64;100.00;102926.41;5036538;28;20329;-69
2024/03/17 04:41:56;;;;;;;10.83;3.00;;;;;;;3.73;100.00;102954.13;5037783;28;20223;-70
2024/03/17 04:44:22;;;;;;;11.10;3.03;;;;;;;3.34;100.00;102903.59;5049062;28;20445;-69
2024/03/17 04:46:48;;;;;;;12.60;3.57;;;;;;;2.48;100.00;102763.41;5033901;28;20558;-69
2024/03/17 04:49:14;;;;;;;14.80;3.00;;;;;;;3.44;100.00;102913.59;5031242;28;20192;-69
2024/03/17 04:51:39;;;;;;;10.20;3.43;;;;;;;3.53;100.00;102924.47;5049088;28;20253;-69
2024/03/17 04:54:06;;;;;;;14.40;3.57;;;;;;;3.33;100.00;102854.16;5027881;28;20238;-69
2024/03/17 04:56:32;;;;;;;11.30;4.30;;;;;;;3.78;100.00;102934.28;5033985;28;20188;-70
2024/03/17 04:58:58;;;;;;;13.20;3.77;;;;;;;3.31;100.00;102853.41;5034080;28;20453;-69
2024/03/17 05:01:24;;;;;;;10.23;2.73;;;;;;;3.42;100.00;102894.31;5032652;28;20686;-69
2024/03/17 05:03:52;;;;;;;9.83;3.00;;;;;;;3.80;100.00;102939.50;5033043;28;20176;-70
2024/03/17 05:06:18;;;;;;;10.30;3.47;;;;;;;3.35;100.00;102870.81;5044635;28;20498;-69
2024/03/17 05:08:43;;;;;;;8.90;3.40;;;;;;;3.62;100.00;102923.88;5031450;28;20445;-69
2024/03/17 05:11:09;;;;;;;9.37;2.70;;;;;;;3.71;100.00;102940.13;5044841;28;20207;-69
2024/03/17 05:13:38;;;;;;;8.53;3.17;;;;;;;3.46;100.00;102920.50;5030319;28;20534;-69
2024/03/17 05:16:04;;;;;;;7.63;3.13;;;;;;;3.64;100.00;102944.97;5028651;28;20183;-69
2024/03/17 05:18:32;;;;;;;14.83;3.17;;;;;;;3.30;100.00;102883.56;5033427;28;20441;-69
2024/03/17 05:21:05;;;;;;;10.23;3.43;;;;;;;3.46;100.00;102896.63;5031031;28;20480;-69
2024/03/17 05:23:32;;;;;;;11.43;3.80;;;;;;;3.85;100.00;102943.56;5027781;28;20944;-69
2024/03/17 05:25:58;;;;;;;8.83;3.00;;;;;;;3.50;100.00;102882.25;5031915;28;21187;-69
2024/03/17 05:28:25;;;;;;;11.57;3.70;;;;;;;3.66;100.00;102934.28;5035019;28;20439;-69
2024/03/17 05:30:52;;;;;;;10.47;3.20;;;;;;;3.46;100.00;102930.28;5031398;28;20545;-70
2024/03/17 05:33:18;;;;;;;12.00;3.57;;;;;;;3.61;100.00;102956.66;5029453;28;20466;-69
2024/03/17 05:35:52;;;;;;;8.90;3.97;;;;;;;3.76;100.00;102949.50;5032992;28;20445;-70
2024/03/17 05:38:22;;;;;;;15.07;4.20;;;;;;;3.78;100.00;102970.59;5035015;28;21852;-70
2024/03/17 05:41:03;;;;;;;12.63;3.60;;;;;;;3.86;100.00;102949.72;5045096;28;20470;-69
2024/03/17 05:43:29;;;;;;;11.13;3.73;;;;;;;3.79;100.00;102951.06;5031191;28;20444;-69
2024/03/17 05:46:02;;;;;;;14.70;4.30;;;;;;;3.92;100.00;102943.16;5026804;28;20517;-69
2024/03/17 05:48:29;;;;;;;11.50;4.27;;;;;;;3.91;100.00;102938.81;5050978;28;21322;-70
2024/03/17 05:50:54;;;;;;;11.47;3.97;;;;;;;3.06;100.00;102811.75;5034365;28;20458;-69
2024/03/17 05:53:21;;;;;;;11.63;4.10;;;;;;;3.87;100.00;102929.31;5027633;28;20433;-69
2024/03/17 05:55:46;;;;;;;12.07;4.70;;;;;;;3.55;100.00;102871.28;5029482;28;20491;-69
2024/03/17 05:58:12;;;;;;;9.87;3.80;;;;;;;3.98;100.00;102924.97;5029826;28;20441;-69
2024/03/17 06:00:41;;;;;;;12.83;4.57;;;;;;;4.13;100.00;102943.47;5046786;28;20690;-69
2024/03/17 06:03:07;;;;;;;8.53;4.10;;;;;;;3.83;100.00;102949.94;5026845;28;20496;-69
2024/03/17 06:05:34;;;;;;;10.60;4.27;;;;;;;3.77;100.00;102956.50;5027998;28;20439;-69
2024/03/17 06:08:02;;;;;;;11.20;4.90;;;;;;;3.83;100.00;102952.56;5027007;28;20573;-69
2024/03/17 06:10:27;;;;;;;10.60;3.93;;;;;;;3.68;100.00;102904.03;5041318;28;21219;-69
2024/03/17 06:12:53;;;;;;;9.67;4.20;;;;;;;3.76;100.00;102920.28;5023007;28;20454;-69
2024/03/17 06:15:20;;;;;;;13.53;4.27;;;;;;;3.27;100.00;102837.78;5028067;28;20183;-69
2024/03/17 06:17:46;;;;;;;12.50;4.27;;;;;;;4.15;100.00;102947.72;5040574;28;20192;-69
2024/03/17 06:20:13;;;;;;;7.57;3.53;;;;;;;3.61;100.00;102890.31;5030888;28;20897;-69
2024/03/17 06:22:39;;;;;;;10.10;4.10;;;;;;;3.56;100.00;102863.25;5028180;28;20693;-69
2024/03/17 06:25:05;;;;;;;11.33;4.60;;;;;;;4.10;100.00;102949.00;5040373;28;20441;-69
2024/03/17 06:27:33;;;;;;;13.83;3.80;;;;;;;4.05;100.00;102915.66;5044022;28;20176;-69
2024/03/17 06:30:00;;;;;;;9.93;4.50;;;;;;;4.29;100.00;102928.19;5030016;28;20783;-69
2024/03/17 06:32:26;;;;;;;10.47;4.30;;;;;;;3.83;100.00;102844.56;5022847;28;20470;-68
2024/03/17 06:34:51;;;;;;;8.97;4.17;;;;;;;4.28;100.00;102895.47;5031404;28;20434;-68
2024/03/17 06:37:17;;;;;;;13.10;4.83;;;;;;;4.25;100.00;102878.88;5032918;28;20270;-69
2024/03/17 06:39:45;;;;;;;11.47;5.10;;;;;;;4.45;100.00;102910.22;5027520;28;20218;-69
2024/03/17 06:42:11;;;;;;;13.90;5.10;;;;;;;4.48;100.00;102902.03;5034097;28;20264;-69
2024/03/17 06:44:37;;;;;;;11.90;5.50;;;;;;;4.37;100.00;102907.25;5033274;28;20431;-69
2024/03/17 06:47:03;;;;;;;12.03;5.23;;;;;;;4.56;100.00;102928.06;5034397;28;20444;-68
2024/03/17 06:49:28;;;;;;;12.77;7.23;;;;;;;4.12;100.00;102862.13;5028057;28;20187;-69
2024/03/17 06:51:53;;;;;;;12.67;6.53;;;;;;;4.45;100.00;102894.25;5032991;28;20276;-68
2024/03/17 06:54:19;;;;;;;12.37;6.30;;;;;;;4.53;100.00;102904.38;5039746;28;20187;-68
2024/03/17 06:56:45;;;;;;;12.63;5.00;;;;;;;4.39;100.00;102892.03;5031906;28;20186;-69
2024/03/17 06:59:10;;;;;;;11.47;4.50;;;;;;;4.60;100.00;102899.44;5037002;28;20458;-70
2024/03/17 07:01:36;;;;;;;15.33;5.00;;;;;;;4.60;100.00;102912.75;5044861;28;20326;-69
2024/03/17 07:04:01;;;;;;;10.50;4.83;;;;;;;4.32;100.00;102852.75;5030701;28;20218;-70
2024/03/17 07:06:27;;;;;;;9.07;4.30;;;;;;;4.49;100.00;102885.13;5032825;28;20215;-69
2024/03/17 07:08:52;;;;;;;17.10;4.60;;;;;;;4.69;100.00;102899.66;5031514;28;20179;-69
2024/03/17 07:11:17;;;;;;;8.03;4.40;;;;;;;4.43;100.00;102812.97;5045714;28;20231;-70
2024/03/17 07:13:43;;;;;;;15.17;5.03;;;;;;;4.95;100.00;102907.56;5030308;28;20176;-70
2024/03/17 07:16:09;;;;;;;13.00;3.90;;;;;;;5.08;100.00;102892.41;5046379;28;20654;-70
2024/03/17 07:18:35;;;;;;;10.70;4.90;;;;;;;5.23;100.00;102885.09;5030240;28;20237;-70
2024/03/17 07:21:03;;;;;;;11.77;4.60;;;;;;;5.53;100.00;102907.75;5028504;28;20474;-69
2024/03/17 07:23:30;;;;;;;18.23;4.67;;;;;;;5.66;100.00;102901.38;5033147;28;20219;-69
2024/03/17 07:25:57;;;;;;;10.20;4.07;;;;;;;5.39;100.00;102845.75;5032111;28;20900;-70
2024/03/17 07:28:24;;;;;;;11.90;3.93;;;;;;;5.80;100.00;102897.66;5033229;28;20852;-70
2024/03/17 07:30:54;;;;;;;8.20;3.40;;;;;;;5.95;100.00;102903.66;5041235;28;20450;-70
2024/03/17 07:33:20;;;;;;;11.87;4.23;;;;;;;6.01;100.00;102895.19;5024484;28;20496;-69
2024/03/17 07:35:56;;;;;;;12.17;4.87;;;;;;;6.33;100.00;102911.38;5045325;28;20450;-69
2024/03/17 07:38:23;;;;;;;13.53;3.90;;;;;;;6.35;100.00;102903.22;5028269;28;20880;-69
2024/03/17 07:41:05;;;;;;;12.87;3.93;;;;;;;6.38;100.00;102875.50;5027919;28;20480;-69
2024/03/17 07:43:33;;;;;;;13.53;3.90;;;;;;;6.67;100.00;102907.84;5046508;28;20446;-70
2024/03/17 07:46:06;;;;;;;15.73;3.00;;;;;;;6.27;100.00;102871.84;5026386;28;21216;-69
2024/03/17 07:48:36;;;;;;;12.20;3.50;;;;;;;6.51;100.00;102934.88;5029362;28;20492;-69
2024/03/17 07:51:08;;;;;;;13.33;3.80;;;;;;;6.62;100.00;102942.00;5027840;28;20461;-70
2024/03/17 07:53:34;;;;;;;16.23;5.90;;;;;;;6.42;100.00;102954.22;5027480;28;20470;-69
2024/03/17 07:56:09;;;;;;;11.20;3.13;;;;;;;6.61;100.00;102951.84;5029229;28;20439;-69
2024/03/17 07:58:35;;;;;;;9.43;3.27;;;;;;;6.79;100.00;102961.03;5033894;28;20429;-69
2024/03/17 08:01:03;;;;;;;12.37;3.30;;;;;;;6.83;100.00;102969.66;5025116;28;20468;-68
2024/03/17 08:03:31;;;;;;;15.00;3.60;;;;;;;6.77;100.00;102964.81;5034573;28;20452;-69
2024/03/17 08:05:57;;;;;;;16.17;3.17;;;;;;;6.96;100.00;102950.84;5033408;28;20435;-69
2024/03/17 08:08:22;;;;;;;14.70;2.50;;;;;;;7.01;100.00;102937.97;5026415;28;20982;-68
2024/03/17 08:10:48;;;;;;;11.23;3.07;;;;;;;7.26;100.00;102984.88;5029287;28;20461;-69
2024/03/17 08:13:16;;;;;;;17.20;3.70;;;;;;;7.31;100.00;102995.19;5030674;28;20187;-69
2024/03/17 08:15:43;;;;;;;10.27;2.90;;;;;;;7.36;100.00;103009.00;5027421;28;21361;-70
2024/03/17 08:18:09;;;;;;;11.60;2.27;;;;;;;7.45;100.00;103016.25;5028031;28;20481;-69
2024/03/17 08:20:43;;;;;;;10.30;2.90;;;;;;;7.57;100.00;103014.41;5041949;28;20504;-69
2024/03/17 08:23:11;;;;;;;17.33;3.50;;;;;;;7.60;100.00;103030.19;5045663;28;20515;-70
2024/03/17 08:25:37;;;;;;;13.43;2.50;;;;;;;7.42;100.00;103044.06;5030453;28;20529;-69
2024/03/17 08:28:03;;;;;;;10.40;2.20;;;;;;;7.40;100.00;103046.00;5034111;28;21231;-69
2024/03/17 08:30:30;;;;;;;18.30;2.97;;;;;;;7.65;100.00;103049.34;5025746;28;20181;-69
2024/03/17 08:32:56;;;;;;;14.40;4.20;;;;;;;7.72;100.00;103069.25;5029972;28;20525;-70
2024/03/17 08:35:24;;;;;;;16.57;3.50;;;;;;;7.10;100.00;102953.25;5028119;28;20574;-69
2024/03/17 08:37:51;;;;;;;9.53;2.40;;;;;;;7.62;100.00;103044.28;5027507;28;20194;-69
2024/03/17 08:40:17;;;;;;;15.80;2.50;;;;;;;7.96;100.00;103073.56;5033920;28;20517;-70
2024/03/17 08:42:43;;;;;;;12.52;2.65;;;;;;;7.75;100.00;103068.16;5027355;28;21519;-70
2024/03/17 08:45:11;;;;;;;12.90;2.27;;;;;;;8.02;100.00;103073.91;5025770;28;20291;-70
2024/03/17 08:47:36;;;;;;;12.40;2.20;;;;;;;7.14;100.00;102933.31;5030746;28;20249;-70
2024/03/17 08:50:03;;;;;;;12.93;2.50;;;;;;;8.01;100.00;103090.06;5028660;28;20809;-69
2024/03/17 08:52:32;;;;;;;12.83;2.27;;;;;;;7.74;100.00;103069.97;5027859;28;20218;-69
2024/03/17 08:55:03;;;;;;;12.27;2.60;;;;;;;7.69;100.00;103057.00;5028416;28;20451;-69
2024/03/17 08:57:29;;;;;;;12.83;2.47;;;;;;;7.99;100.00;103079.50;5032731;28;20941;-70
2024/03/17 08:59:57;;;;;;;10.37;3.30;;;;;;;7.64;100.00;103032.50;5030271;28;20473;-70
2024/03/17 09:02:23;;;;;;;12.83;2.40;;;;;;;8.04;100.00;103066.63;5044629;28;20254;-70
2024/03/17 09:04:48;;;;;;;12.90;2.47;;;;;;;7.96;100.00;103039.66;5032877;28;20446;-70
2024/03/17 09:07:16;;;;;;;18.53;5.63;;;;;;;7.95;100.00;103037.13;5025247;28;20210;-70
2024/03/17 09:09:42;;;;;;;15.27;2.97;;;;;;;7.86;100.00;103042.25;5031301;28;20230;-70
2024/03/17 09:12:08;;;;;;;11.20;3.10;;;;;;;8.07;100.00;103044.09;5030878;28;20921;-70
2024/03/17 09:14:33;;;;;;;11.50;2.60;;;;;;;7.88;100.00;103029.59;5032071;28;20194;-70
2024/03/17 09:16:59;;;;;;;11.83;2.30;;;;;;;7.92;100.00;103052.41;5031365;28;20458;-69
2024/03/17 09:19:24;;;;;;;11.83;2.67;;;;;;;7.94;100.00;103036.28;5033588;28;20295;-70
2024/03/17 09:21:50;;;;;;;12.30;2.57;;;;;;;8.14;100.00;103018.56;5030446;28;20234;-69
2024/03/17 09:24:15;;;;;;;15.40;2.30;;;;;;;8.30;100.00;103016.31;5048488;28;20249;-70
2024/03/17 09:26:41;;;;;;;10.77;2.20;;;;;;;8.21;100.00;103006.38;5027839;28;20203;-70
2024/03/17 09:29:06;;;;;;;8.20;1.87;;;;;;;8.11;100.00;103000.13;5031256;28;20196;-69
2024/03/17 09:31:35;;;;;;;9.00;2.40;;;;;;;8.09;100.00;103028.78;5026598;28;20709;-69
2024/03/17 09:34:01;;;;;;;10.33;1.97;;;;;;;8.27;100.00;103019.19;5027550;28;20199;-70
2024/03/17 09:36:26;;;;;;;10.43;2.40;;;;;;;7.89;100.00;102927.09;5018377;28;20481;-69
2024/03/17 09:38:54;;;;;;;9.80;2.10;;;;;;;8.31;100.00;103031.34;5027944;28;20471;-70
2024/03/17 09:41:25;;;;;;;12.73;3.33;;;;;;;8.03;100.00;102974.03;5030216;28;20694;-70
2024/03/17 09:43:53;;;;;;;9.80;2.23;;;;;;;8.26;100.00;102993.47;5049735;28;20443;-70
2024/03/17 09:46:19;;;;;;;8.00;1.90;;;;;;;8.29;100.00;102970.97;5034316;28;20430;-70
2024/03/17 09:48:44;;;;;;;10.43;2.30;;;;;;;8.15;100.00;102966.78;5040815;28;20476;-70
2024/03/17 09:51:19;;;;;;;12.60;2.60;;;;;;;8.00;100.00;102906.63;5019520;28;20214;-69
2024/03/17 09:53:45;;;;;;;11.37;2.10;;;;;;;8.24;100.00;102933.91;5046058;28;20182;-70
2024/03/17 09:56:16;;;;;;;9.23;1.97;;;;;;;8.51;100.00;102964.66;5031591;28;20430;-70
2024/03/17 09:58:42;;;;;;;11.70;2.90;;;;;;;8.27;100.00;102943.50;5028926;28;20813;-70
2024/03/17 10:01:08;;;;;;;10.17;1.90;;;;;;;8.45;100.00;102949.16;5036192;28;20912;-70
2024/03/17 10:03:58;;;;;;;13.53;3.07;;;;;;;8.67;100.00;102956.13;5035683;28;20442;-70
2024/03/17 10:06:27;;;;;;;13.83;2.87;;;;;;;8.68;100.00;102928.38;5031957;28;21116;-70
2024/03/17 10:09:09;;;;;;;13.80;2.47;;;;;;;8.48;100.00;102872.16;5030289;28;20465;-70
2024/03/17 10:11:36;;;;;;;16.87;3.80;;;;;;;8.34;100.00;102865.31;5033830;28;20454;-70
2024/03/17 10:14:07;;;;;;;10.73;2.90;;;;;;;8.36;100.00;102908.81;5050783;28;20442;-69
2024/03/17 10:16:35;;;;;;;10.43;2.50;;;;;;;8.75;100.00;102900.94;5044983;28;20459;-70
2024/03/17 10:19:39;;;;;;;14.70;3.10;;;;;;;8.87;100.00;102909.72;5040780;28;20438;-70
2024/03/17 10:22:05;;;;;;;14.47;2.47;;;;;;;8.80;100.00;102892.53;4978816;28;20550;-70
2024/03/17 10:24:31;;;;;;;10.77;2.10;;;;;;;9.01;100.00;102912.00;5023013;28;20454;-69
2024/03/17 10:26:58;;;;;;;9.30;2.13;;;;;;;8.72;100.00;102858.41;5031796;28;20278;-69
2024/03/17 10:29:27;;;;;;;11.00;2.50;;;;;;;9.02;100.00;102902.13;5035895;28;20457;-69
2024/03/17 10:32:12;;;;;;;10.00;2.37;;;;;;;9.01;100.00;102890.59;5032074;28;20457;-70
2024/03/17 10:34:39;;;;;;;13.93;2.27;;;;;;;8.98;100.00;102864.09;5036437;28;20526;-70
2024/03/17 10:37:15;;;;;;;13.03;2.30;;;;;;;8.79;100.00;102830.13;5036835;28;20460;-70
2024/03/17 10:39:42;;;;;;;8.60;2.23;;;;;;;9.13;100.00;102848.47;5039001;28;20469;-69
2024/03/17 10:42:10;;;;;;;9.90;2.07;;;;;;;9.19;100.00;102857.78;5030782;28;20468;-70
2024/03/17 10:44:37;;;;;;;11.00;2.80;;;;;;;9.22;100.00;102847.63;5049870;28;20426;-70
2024/03/17 10:47:09;;;;;;;9.47;2.60;;;;;;;9.23;100.00;102845.81;5031803;28;20877;-71
2024/03/17 10:49:36;;;;;;;9.87;2.47;;;;;;;9.33;100.00;102838.63;5047786;28;20620;-71
2024/03/17 10:52:06;;;;;;;12.03;3.00;;;;;;;8.75;100.00;102745.75;5049654;28;20975;-69
2024/03/17 10:54:33;;;;;;;10.43;2.40;;;;;;;9.36;100.00;102816.06;5032576;28;20606;-69
2024/03/17 10:57:14;;;;;;;10.80;2.90;;;;;;;8.75;100.00;102705.63;5033939;28;20430;-70
2024/03/17 10:59:41;;;;;;;10.23;2.70;;;;;;;9.50;100.00;102802.22;5034848;28;20469;-70
2024/03/17 11:02:25;;;;;;;16.07;3.20;;;;;;;9.52;100.00;102789.53;5037440;28;20469;-70
2024/03/17 11:04:53;;;;;;;10.90;2.53;;;;;;;9.61;100.00;102775.28;5034883;28;20449;-70
2024/03/17 11:07:19;;;;;;;18.17;3.20;;;;;;;9.62;100.00;102752.84;5040495;28;20492;-70
2024/03/17 11:09:47;;;;;;;10.87;2.43;;;;;;;8.94;100.00;102627.19;5051036;28;20495;-70
2024/03/17 11:12:47;;;;;;;9.33;2.20;;;;;;;9.79;100.00;102739.69;5027128;28;20528;-70
2024/03/17 11:15:18;;;;;;;12.70;2.60;;;;;;;9.54;100.00;102733.97;5036396;28;20434;-70
2024/03/17 11:17:47;;;;;;;11.53;2.87;;;;;;;9.65;100.00;102706.16;5031580;28;20441;-70
2024/03/17 11:20:22;;;;;;;9.63;2.50;;;;;;;9.24;100.00;102698.38;5050520;28;20547;-71
2024/03/17 11:22:50;;;;;;;14.77;3.80;;;;;;;9.13;100.00;102653.03;5027060;28;20442;-70
2024/03/17 11:25:27;;;;;;;12.10;2.90;;;;;;;9.82;100.00;102713.41;5034922;28;20447;-70
2024/03/17 11:27:56;;;;;;;15.10;4.40;;;;;;;9.75;100.00;102701.63;5033587;28;20446;-70